Time;durP1;ratioP1;P1;durP2;ratioP2;P2;SDS_P1;SDS_P2;PMS_P1;PMS_P2;Temp;Humidity;BMP_temperature;BMP_pressure;BME280_temperature;BME280_humidity;BME280_pressure;Samples;Min_cycle;Max_cycle;Signal;HPM_P1;HPM_P2
2022/06/06 00:01:22;;;;;;;0.90;0.90;;;25.90;56.70;;;;;;5100068;28;20085;-67
2022/06/06 00:03:50;;;;;;;0.98;0.98;;;25.90;56.70;;;;;;5103663;28;20055;-67
2022/06/06 00:06:20;;;;;;;1.00;1.00;;;25.90;56.80;;;;;;5106308;28;20075;-67
2022/06/06 00:08:47;;;;;;;;;;;25.90;56.80;;;;;;5105097;28;20575;-67
2022/06/06 00:11:15;;;;;;;0.80;0.80;;;25.90;56.80;;;;;;5105901;28;19927;-67
2022/06/06 00:13:46;;;;;;;1.05;1.05;;;25.90;56.80;;;;;;5106213;28;20055;-67
2022/06/06 00:16:14;;;;;;;1.05;1.05;;;25.90;56.80;;;;;;5104542;28;20069;-67
2022/06/06 00:18:43;;;;;;;0.90;0.90;;;25.90;56.70;;;;;;5106178;28;20359;-67
2022/06/06 00:21:11;;;;;;;0.95;0.95;;;25.90;56.70;;;;;;5105598;28;20080;-67
2022/06/06 00:23:40;;;;;;;1.20;1.20;;;25.90;56.70;;;;;;5105081;28;20523;-67
2022/06/06 00:26:12;;;;;;;1.38;1.38;;;25.90;56.70;;;;;;5104980;28;20096;-67
2022/06/06 00:28:43;;;;;;;0.90;0.90;;;25.90;56.70;;;;;;5105267;28;20109;-67
2022/06/06 00:36:47;;;;;;;1.20;1.20;;;25.80;56.70;;;;;;5105837;28;20503;-67
2022/06/06 00:39:17;;;;;;;1.30;1.30;;;25.80;56.70;;;;;;5105646;28;20182;-67
2022/06/06 00:41:46;;;;;;;;;;;25.80;56.70;;;;;;5106028;28;20082;-67
2022/06/06 00:44:17;;;;;;;0.98;0.98;;;25.80;56.70;;;;;;5104499;28;19920;-68
2022/06/06 00:46:59;;;;;;;1.13;1.13;;;25.80;56.70;;;;;;5105311;28;20192;-67
2022/06/06 00:49:40;;;;;;;1.23;1.23;;;25.80;56.70;;;;;;5104081;28;20040;-67
2022/06/06 00:52:20;;;;;;;1.02;1.02;;;25.80;56.70;;;;;;5104359;28;20089;-67
2022/06/06 00:54:48;;;;;;;1.07;1.07;;;25.80;56.70;;;;;;5105451;28;20550;-67
2022/06/06 00:57:21;;;;;;;1.20;1.20;;;25.80;56.70;;;;;;5105476;28;20903;-67
2022/06/06 00:59:49;;;;;;;1.30;1.30;;;25.80;56.70;;;;;;5105332;28;20255;-67
2022/06/06 01:02:17;;;;;;;1.05;1.05;;;25.80;56.70;;;;;;5104795;27;20051;-67
2022/06/06 01:04:45;;;;;;;1.10;1.10;;;25.80;56.70;;;;;;5100001;28;20048;-67
2022/06/06 01:07:12;;;;;;;1.10;1.10;;;25.80;56.70;;;;;;5104421;28;20051;-68
2022/06/06 01:09:42;;;;;;;0.82;0.82;;;25.80;56.70;;;;;;5103693;28;20047;-67
2022/06/06 01:12:13;;;;;;;1.33;1.30;;;25.70;56.60;;;;;;5105099;28;20108;-67
2022/06/06 01:14:46;;;;;;;0.93;0.93;;;25.70;56.70;;;;;;5108337;28;20308;-67
2022/06/06 01:17:46;;;;;;;1.23;1.23;;;25.70;56.60;;;;;;5109376;28;20101;-67
2022/06/06 01:20:43;;;;;;;1.00;1.00;;;25.70;56.70;;;;;;5108137;28;20048;-68
2022/06/06 01:23:39;;;;;;;1.08;1.08;;;25.70;56.60;;;;;;5109110;28;20131;-67
2022/06/06 01:26:39;;;;;;;1.10;1.10;;;25.70;56.60;;;;;;5108734;27;20051;-67
2022/06/06 01:29:15;;;;;;;1.20;1.10;;;25.70;56.70;;;;;;5108312;28;20382;-67
2022/06/06 01:31:48;;;;;;;1.02;1.02;;;25.70;56.60;;;;;;5108984;28;20101;-67
2022/06/06 01:34:28;;;;;;;1.20;1.20;;;25.70;56.70;;;;;;5107386;28;20057;-68
2022/06/06 01:36:57;;;;;;;2.30;1.67;;;25.70;56.60;;;;;;5107554;28;20060;-67
2022/06/06 01:39:27;;;;;;;1.50;1.40;;;25.70;56.60;;;;;;5108984;28;20091;-67
2022/06/06 01:42:18;;;;;;;1.55;1.45;;;25.70;56.40;;;;;;5108688;28;20051;-67
2022/06/06 01:44:52;;;;;;;1.40;1.40;;;25.70;56.50;;;;;;5108946;28;20052;-67
2022/06/06 01:47:31;;;;;;;1.33;1.30;;;25.70;56.50;;;;;;5106667;28;20048;-68
2022/06/06 01:49:59;;;;;;;1.30;1.30;;;25.70;56.50;;;;;;5109227;28;20526;-68
2022/06/06 01:52:27;;;;;;;1.33;1.23;;;25.70;56.50;;;;;;5108544;28;20051;-67
2022/06/06 01:54:56;;;;;;;1.58;1.45;;;25.70;56.30;;;;;;5108578;28;20112;-68
2022/06/06 01:57:26;;;;;;;1.48;1.38;;;25.70;56.30;;;;;;5108615;28;20087;-68
2022/06/06 01:59:53;;;;;;;2.17;1.53;;;25.70;56.20;;;;;;5108925;27;20331;-68
2022/06/06 02:02:20;;;;;;;1.40;1.40;;;25.70;56.20;;;;;;5106867;28;20534;-68
2022/06/06 02:04:47;;;;;;;1.25;1.25;;;25.70;56.10;;;;;;5108480;28;20104;-67
2022/06/06 02:07:14;;;;;;;1.50;1.50;;;25.60;56.00;;;;;;5102841;28;20446;-68
2022/06/06 02:09:42;;;;;;;1.52;1.42;;;25.70;56.00;;;;;;5108093;28;20689;-68
2022/06/06 02:12:09;;;;;;;1.33;1.33;;;25.60;56.00;;;;;;5107963;28;20123;-68
2022/06/06 02:14:38;;;;;;;2.67;1.60;;;25.70;56.10;;;;;;5108413;27;20043;-67
2022/06/06 02:17:06;;;;;;;1.20;1.20;;;25.60;56.10;;;;;;5107802;28;20043;-67
2022/06/06 02:19:34;;;;;;;1.13;1.13;;;25.60;56.10;;;;;;5107363;28;20111;-67
2022/06/06 02:22:01;;;;;;;1.30;1.30;;;25.60;56.10;;;;;;5107623;28;20040;-68
2022/06/06 02:24:29;;;;;;;1.02;1.02;;;25.60;56.10;;;;;;5107422;28;20044;-68
2022/06/06 02:26:56;;;;;;;1.30;1.30;;;25.60;56.10;;;;;;5109041;27;20036;-67
2022/06/06 02:29:24;;;;;;;1.88;1.77;;;25.60;56.20;;;;;;5128750;27;20104;-69
2022/06/06 02:31:51;;;;;;;1.50;1.45;;;25.60;56.10;;;;;;5126753;27;20100;-67
2022/06/06 02:34:18;;;;;;;2.53;1.38;;;25.60;56.10;;;;;;5128373;27;20039;-68
2022/06/06 02:36:45;;;;;;;1.77;1.67;;;25.60;56.20;;;;;;5127115;27;20047;-68
2022/06/06 02:39:13;;;;;;;1.40;1.40;;;25.60;56.10;;;;;;5123770;27;20107;-68
2022/06/06 02:41:41;;;;;;;1.45;1.35;;;25.60;56.10;;;;;;5127839;27;20091;-68
2022/06/06 02:44:09;;;;;;;1.80;1.70;;;25.60;56.20;;;;;;5128240;27;20065;-68
2022/06/06 02:46:37;;;;;;;1.40;1.30;;;25.60;56.20;;;;;;5119988;27;20122;-68
2022/06/06 02:49:04;;;;;;;1.52;1.45;;;25.60;56.20;;;;;;5106271;28;20055;-67
2022/06/06 02:51:31;;;;;;;1.30;1.30;;;25.60;56.20;;;;;;5107529;28;20289;-67
2022/06/06 02:54:01;;;;;;;1.80;1.70;;;25.60;56.20;;;;;;5107497;28;20461;-67
2022/06/06 02:56:28;;;;;;;1.50;1.45;;;25.60;56.20;;;;;;5107640;28;20472;-69
2022/06/06 02:58:57;;;;;;;2.03;1.10;;;25.50;56.20;;;;;;5106517;28;20051;-68
2022/06/06 03:01:24;;;;;;;1.50;1.40;;;25.60;56.30;;;;;;5107283;27;20127;-68
2022/06/06 03:03:52;;;;;;;1.77;1.67;;;25.50;56.20;;;;;;5107373;28;20515;-68
2022/06/06 03:06:34;;;;;;;1.30;1.30;;;25.50;56.20;;;;;;5106745;28;20056;-68
2022/06/06 03:09:32;;;;;;;1.35;1.35;;;25.50;56.20;;;;;;5104092;28;20052;-67
2022/06/06 03:12:24;;;;;;;1.00;1.00;;;25.50;56.30;;;;;;5107185;28;20303;-68
2022/06/06 03:15:22;;;;;;;1.65;1.55;;;25.50;56.30;;;;;;5107294;28;20478;-68
2022/06/06 03:21:26;;;;;;;1.50;1.50;;;25.50;56.40;;;;;;5106921;28;20518;-67
2022/06/06 03:24:33;;;;;;;1.33;1.33;;;25.50;56.40;;;;;;5106827;28;20063;-68
2022/06/06 03:27:33;;;;;;;1.35;1.20;;;25.40;56.30;;;;;;5105063;28;20043;-67
2022/06/06 03:30:32;;;;;;;1.30;1.30;;;25.50;56.40;;;;;;5106764;28;20100;-68
2022/06/06 03:33:39;;;;;;;1.40;1.40;;;25.50;56.40;;;;;;5105800;28;20069;-67
2022/06/06 03:36:28;;;;;;;1.33;1.33;;;25.40;56.50;;;;;;5105127;28;20051;-68
2022/06/06 03:39:14;;;;;;;1.40;1.40;;;25.40;56.50;;;;;;5106381;28;20047;-68
2022/06/06 03:41:56;;;;;;;1.73;1.60;;;25.40;56.40;;;;;;5102108;28;20071;-68
2022/06/06 03:44:56;;;;;;;1.60;1.50;;;25.40;56.40;;;;;;5105999;28;20104;-68
2022/06/06 03:47:43;;;;;;;;;;;25.40;56.40;;;;;;5105517;28;20108;-68
2022/06/06 03:50:46;;;;;;;1.50;1.40;;;25.40;56.40;;;;;;5106499;28;20585;-68
2022/06/06 03:53:37;;;;;;;1.45;1.45;;;25.40;56.40;;;;;;5106105;28;20126;-67
2022/06/06 03:56:34;;;;;;;1.50;1.50;;;25.40;56.50;;;;;;5106029;28;20366;-68
2022/06/06 03:59:01;;;;;;;1.10;1.10;;;25.40;56.40;;;;;;5104939;28;20046;-68
2022/06/06 04:01:31;;;;;;;1.52;1.42;;;25.40;56.50;;;;;;5106267;28;20047;-68
2022/06/06 04:03:59;;;;;;;1.30;1.30;;;25.40;56.40;;;;;;5104740;28;20341;-68
2022/06/06 04:06:28;;;;;;;1.35;1.23;;;25.40;56.40;;;;;;5106471;27;20052;-67
2022/06/06 04:08:55;;;;;;;1.20;1.20;;;25.40;56.40;;;;;;5105479;28;20389;-68
2022/06/06 04:11:39;;;;;;;1.17;1.17;;;25.30;56.40;;;;;;5105704;28;20284;-67
2022/06/06 04:14:21;;;;;;;1.10;1.10;;;25.30;56.40;;;;;;5101626;28;20545;-67
2022/06/06 04:17:28;;;;;;;2.17;1.42;;;25.30;56.40;;;;;;5104382;28;20118;-68
2022/06/06 04:20:23;;;;;;;1.63;1.52;;;25.40;56.50;;;;;;5105848;28;20047;-68
2022/06/06 04:23:23;;;;;;;1.48;1.45;;;25.30;56.50;;;;;;5104579;28;20408;-68
2022/06/06 04:26:11;;;;;;;1.60;1.50;;;25.40;56.60;;;;;;5104357;28;20083;-68
2022/06/06 04:29:07;;;;;;;1.25;1.25;;;25.30;56.50;;;;;;5103095;28;20527;-69
2022/06/06 04:31:59;;;;;;;1.00;1.00;;;25.30;56.50;;;;;;5105297;28;20047;-68
2022/06/06 04:34:54;;;;;;;1.50;1.40;;;25.30;56.50;;;;;;5105107;28;20102;-68
2022/06/06 04:37:36;;;;;;;1.30;1.25;;;25.30;56.50;;;;;;5105166;28;20051;-68
2022/06/06 04:40:20;;;;;;;1.45;1.45;;;25.30;56.50;;;;;;5105020;28;20495;-69
2022/06/06 04:43:14;;;;;;;1.30;1.30;;;25.30;56.50;;;;;;5105644;28;20051;-70
2022/06/06 04:45:56;;;;;;;1.60;1.50;;;25.30;56.60;;;;;;5102399;28;20050;-68
2022/06/06 04:48:25;;;;;;;1.20;1.20;;;25.30;56.50;;;;;;5108974;28;20059;-68
2022/06/06 04:50:57;;;;;;;1.55;1.45;;;25.30;56.50;;;;;;5112162;27;20046;-68
2022/06/06 04:53:26;;;;;;;1.40;1.40;;;25.30;56.60;;;;;;5110751;28;20470;-67
2022/06/06 04:55:56;;;;;;;1.38;1.38;;;25.30;56.50;;;;;;5113112;27;20074;-67
2022/06/06 04:58:27;;;;;;;1.17;1.17;;;25.30;57.10;;;;;;5110279;28;20048;-67
2022/06/06 05:00:55;;;;;;;1.35;1.35;;;25.30;56.50;;;;;;5111220;28;20047;-68
2022/06/06 05:03:23;;;;;;;1.60;1.50;;;25.30;56.40;;;;;;5112762;27;20051;-68
2022/06/06 05:06:30;;;;;;;1.55;1.45;;;25.40;56.40;;;;;;5111547;27;20495;-68
2022/06/06 05:09:26;;;;;;;1.17;1.17;;;25.40;56.40;;;;;;5110957;28;20106;-67
2022/06/06 05:12:33;;;;;;;1.20;1.20;;;25.40;56.10;;;;;;5112441;27;20458;-68
2022/06/06 05:15:26;;;;;;;1.45;1.42;;;25.40;56.00;;;;;;5106524;28;20325;-67
2022/06/06 05:18:27;;;;;;;1.50;1.42;;;25.20;55.80;;;;;;5112243;27;20080;-68
2022/06/06 05:21:24;;;;;;;0.88;0.88;;;25.10;56.00;;;;;;5111247;28;20112;-68
2022/06/06 05:24:15;;;;;;;1.58;1.50;;;24.90;56.00;;;;;;5111909;27;20093;-70
2022/06/06 05:27:11;;;;;;;1.63;1.52;;;24.60;54.90;;;;;;5110882;28;20622;-67
2022/06/06 05:30:12;;;;;;;1.73;1.63;;;24.20;53.80;;;;;;5110638;27;20066;-67
2022/06/06 05:33:11;;;;;;;1.90;1.80;;;23.90;52.90;;;;;;5110546;28;20043;-68
2022/06/06 05:36:15;;;;;;;1.30;1.30;;;23.40;52.20;;;;;;5110444;28;20281;-67
2022/06/06 05:39:09;;;;;;;1.52;1.42;;;23.00;52.00;;;;;;5110955;28;20048;-67
2022/06/06 05:42:16;;;;;;;1.45;1.45;;;22.60;51.50;;;;;;5110406;28;20051;-67
2022/06/06 05:45:19;;;;;;;1.63;1.52;;;22.20;51.90;;;;;;5099473;28;20561;-67
2022/06/06 05:48:14;;;;;;;1.80;1.60;;;21.80;52.50;;;;;;5107474;27;20212;-67
2022/06/06 05:51:13;;;;;;;1.67;1.58;;;21.40;53.70;;;;;;5111167;27;20043;-67
2022/06/06 05:54:09;;;;;;;1.85;1.75;;;21.20;54.20;;;;;;5111641;27;20044;-67
2022/06/06 05:57:16;;;;;;;1.50;1.50;;;21.00;54.10;;;;;;5110480;28;20203;-67
2022/06/06 06:00:01;;;;;;;1.83;1.73;;;20.70;55.00;;;;;;5109157;28;20051;-67
2022/06/06 06:02:45;;;;;;;1.80;1.40;;;20.60;54.70;;;;;;5107311;28;20091;-67
2022/06/06 06:05:30;;;;;;;1.80;1.70;;;20.40;54.50;;;;;;5108302;27;20434;-67
2022/06/06 06:08:30;;;;;;;1.92;1.83;;;20.30;55.80;;;;;;5108783;28;20073;-67
2022/06/06 06:11:27;;;;;;;1.50;1.50;;;20.20;55.40;;;;;;5107128;28;20143;-67
2022/06/06 06:14:31;;;;;;;1.80;1.70;;;20.10;55.40;;;;;;5107627;28;20554;-69
2022/06/06 06:17:00;;;;;;;1.83;1.73;;;19.90;55.90;;;;;;5107806;27;20051;-67
2022/06/06 06:19:54;;;;;;;1.95;1.85;;;19.90;55.80;;;;;;5103756;28;20148;-67
2022/06/06 06:22:24;;;;;;;2.00;1.90;;;19.70;56.00;;;;;;5108520;28;20044;-67
2022/06/06 06:24:59;;;;;;;1.98;1.88;;;19.70;56.70;;;;;;5107114;28;20050;-67
2022/06/06 06:27:28;;;;;;;2.15;2.00;;;19.60;55.90;;;;;;5107948;28;20047;-67
2022/06/06 06:29:57;;;;;;;1.45;1.38;;;19.50;56.10;;;;;;5105472;28;20039;-66
2022/06/06 06:32:40;;;;;;;1.92;1.83;;;19.50;56.80;;;;;;5107934;28;20059;-67
2022/06/06 06:35:24;;;;;;;1.83;1.73;;;19.50;56.30;;;;;;5107613;28;20393;-67
2022/06/06 06:38:22;;;;;;;1.95;1.85;;;19.40;56.10;;;;;;5108041;28;20096;-67
2022/06/06 06:41:16;;;;;;;2.20;2.08;;;19.30;57.30;;;;;;5106129;28;20055;-66
2022/06/06 06:44:03;;;;;;;2.05;1.95;;;19.30;56.30;;;;;;5107708;28;20043;-67
2022/06/06 06:46:40;;;;;;;1.92;1.80;;;19.20;56.30;;;;;;5107075;28;20043;-66
2022/06/06 06:49:36;;;;;;;1.85;1.75;;;19.20;57.90;;;;;;5104418;28;20047;-67
2022/06/06 06:52:26;;;;;;;1.55;1.45;;;19.10;56.90;;;;;;5106296;28;20039;-66
2022/06/06 06:55:22;;;;;;;1.83;1.73;;;19.00;56.60;;;;;;5107075;28;20051;-67
2022/06/06 06:58:19;;;;;;;2.13;2.03;;;19.00;57.90;;;;;;5099308;28;20539;-67
2022/06/06 07:00:56;;;;;;;1.88;1.77;;;18.80;56.70;;;;;;5088019;28;20052;-67
2022/06/06 07:10:15;;;;;;;2.15;2.05;;;18.50;58.00;;;;;;5104297;28;20409;-67
2022/06/06 07:12:58;;;;;;;;;;;18.30;58.00;;;;;;5095555;28;20308;-66
2022/06/06 07:15:49;;;;;;;2.08;1.98;;;18.30;58.90;;;;;;5094070;28;19975;-66
2022/06/06 07:18:20;;;;;;;2.25;2.15;;;18.20;58.00;;;;;;5102241;28;20278;-66
2022/06/06 07:20:49;;;;;;;1.88;1.77;;;18.10;58.50;;;;;;5104441;28;20051;-67
2022/06/06 07:23:17;;;;;;;2.10;2.00;;;18.00;59.70;;;;;;5105917;28;20091;-66
2022/06/06 07:25:49;;;;;;;2.03;1.92;;;18.00;58.80;;;;;;5101860;28;20066;-67
2022/06/06 07:28:22;;;;;;;1.80;1.70;;;17.90;58.50;;;;;;5096668;28;20055;-67
2022/06/06 07:31:11;;;;;;;1.90;1.80;;;17.90;60.50;;;;;;5089750;28;20290;-66
2022/06/06 07:34:08;;;;;;;2.25;2.15;;;17.90;60.50;;;;;;5086649;28;20048;-66
2022/06/06 07:37:04;;;;;;;2.20;2.05;;;18.00;59.70;;;;;;5100366;28;20043;-67
2022/06/06 07:40:10;;;;;;;2.22;2.00;;;18.10;60.80;;;;;;5085276;28;20075;-67
2022/06/06 07:43:00;;;;;;;1.92;1.83;;;18.10;59.80;;;;;;5084754;28;20450;-67
2022/06/06 07:45:35;;;;;;;2.15;2.05;;;18.20;60.00;;;;;;5088904;28;20055;-66
2022/06/06 07:48:42;;;;;;;2.22;2.10;;;18.20;60.70;;;;;;5101682;28;20112;-66
2022/06/06 07:51:45;;;;;;;2.63;2.45;;;18.20;59.60;;;;;;5093584;28;20443;-67
2022/06/06 07:54:29;;;;;;;2.30;2.10;;;18.20;59.20;;;;;;5098661;28;20092;-66
2022/06/06 07:57:15;;;;;;;2.03;1.92;;;18.20;60.60;;;;;;5089986;28;20051;-66
2022/06/06 08:00:05;;;;;;;2.08;1.98;;;18.20;60.10;;;;;;5089266;28;20081;-66
2022/06/06 08:03:12;;;;;;;1.92;1.70;;;18.20;60.00;;;;;;5103480;28;20126;-67
2022/06/06 08:06:19;;;;;;;1.80;1.70;;;18.20;59.10;;;;;;5083146;28;20462;-67
2022/06/06 08:09:21;;;;;;;2.13;2.03;;;18.20;59.20;;;;;;5097704;28;20131;-67
2022/06/06 08:12:16;;;;;;;2.00;1.90;;;18.10;59.50;;;;;;5084472;28;20044;-66
2022/06/06 08:15:17;;;;;;;2.10;2.00;;;18.10;59.10;;;;;;5091416;28;20052;-67
2022/06/06 08:18:13;;;;;;;2.08;1.98;;;18.10;58.70;;;;;;5087545;28;20066;-66
2022/06/06 08:21:10;;;;;;;2.15;2.05;;;18.10;59.60;;;;;;5084864;28;20110;-66
2022/06/06 08:23:39;;;;;;;2.17;2.08;;;18.00;60.10;;;;;;5086030;28;20531;-66
2022/06/06 08:26:08;;;;;;;1.85;1.75;;;18.00;60.40;;;;;;5086878;28;20079;-65
2022/06/06 08:28:39;;;;;;;2.47;1.58;;;18.00;60.30;;;;;;5083830;28;20437;-65
2022/06/06 08:31:08;;;;;;;2.00;1.90;;;18.00;60.20;;;;;;5083789;28;20375;-65
2022/06/06 08:33:35;;;;;;;2.15;2.00;;;18.10;61.00;;;;;;5100234;28;20216;-65
2022/06/06 08:36:26;;;;;;;1.92;1.83;;;18.10;60.50;;;;;;5105700;28;20047;-68
2022/06/06 08:39:25;;;;;;;2.25;2.15;;;18.10;61.00;;;;;;5087593;28;20596;-66
2022/06/06 08:42:24;;;;;;;2.05;1.95;;;18.20;61.90;;;;;;5104208;28;20089;-65
2022/06/06 08:45:08;;;;;;;1.85;1.75;;;18.20;60.90;;;;;;5105674;28;20488;-65
2022/06/06 08:48:02;;;;;;;1.98;1.88;;;18.30;60.30;;;;;;5105017;28;20075;-65
2022/06/06 08:51:01;;;;;;;2.13;2.03;;;18.30;59.60;;;;;;5087617;28;20093;-68
2022/06/06 08:54:08;;;;;;;1.80;1.70;;;18.30;60.00;;;;;;5070517;28;20420;-65
2022/06/06 08:57:14;;;;;;;2.03;1.92;;;18.30;59.90;;;;;;5081021;28;20101;-68
2022/06/06 09:00:03;;;;;;;1.83;1.73;;;18.30;59.70;;;;;;5083799;28;20070;-68
2022/06/06 09:03:03;;;;;;;1.85;1.75;;;18.30;59.70;;;;;;5085498;28;20040;-66
2022/06/06 09:05:57;;;;;;;2.20;2.10;;;18.30;59.50;;;;;;5100003;28;20051;-66
2022/06/06 09:08:53;;;;;;;1.92;1.83;;;18.30;60.50;;;;;;5084646;28;20484;-65
2022/06/06 09:11:55;;;;;;;2.10;2.00;;;18.30;60.50;;;;;;5100745;28;20048;-65
2022/06/06 09:15:04;;;;;;;1.42;1.42;;;18.30;61.20;;;;;;5099507;28;20130;-66
2022/06/06 09:18:11;;;;;;;1.67;1.58;;;18.30;60.00;;;;;;5105055;28;20077;-66
2022/06/06 09:21:08;;;;;;;2.03;1.92;;;18.40;60.00;;;;;;5104331;28;20051;-66
2022/06/06 09:24:15;;;;;;;2.05;1.95;;;18.40;59.50;;;;;;5104361;28;20073;-68
2022/06/06 09:27:22;;;;;;;1.80;1.70;;;18.40;60.10;;;;;;5103604;28;20039;-68
2022/06/06 09:30:18;;;;;;;1.77;1.67;;;18.40;60.50;;;;;;5105336;28;20044;-68
2022/06/06 09:33:25;;;;;;;1.77;1.67;;;18.40;60.00;;;;;;5104077;28;20515;-68
2022/06/06 09:36:17;;;;;;;2.00;1.90;;;18.40;59.40;;;;;;5107534;28;20040;-68
2022/06/06 09:39:21;;;;;;;1.90;1.80;;;18.30;59.60;;;;;;5108900;28;20327;-68
2022/06/06 09:42:15;;;;;;;1.80;1.70;;;18.30;59.90;;;;;;5107872;28;20055;-68
2022/06/06 09:45:08;;;;;;;2.00;1.90;;;18.30;59.80;;;;;;5107747;28;20085;-68
2022/06/06 09:48:10;;;;;;;1.73;1.63;;;18.30;60.30;;;;;;5092923;28;20331;-68
2022/06/06 09:51:16;;;;;;;1.80;1.70;;;18.30;60.00;;;;;;5107386;28;20577;-68
2022/06/06 10:01:13;;;;;;;1.90;1.70;;;18.30;60.60;;;;;;5105310;28;20051;-66
2022/06/06 10:04:21;;;;;;;1.65;1.55;;;18.30;60.20;;;;;;5108346;28;20487;-68
2022/06/06 10:07:21;;;;;;;1.77;1.67;;;18.40;59.90;;;;;;5107419;28;20560;-65
2022/06/06 10:10:19;;;;;;;2.00;1.90;;;18.40;60.00;;;;;;5107178;28;20289;-66
2022/06/06 10:13:10;;;;;;;1.70;1.60;;;18.30;60.30;;;;;;5108388;28;20054;-65
2022/06/06 10:16:16;;;;;;;1.75;1.65;;;18.40;60.40;;;;;;5107180;28;20056;-65
2022/06/06 10:19:23;;;;;;;1.95;1.85;;;18.40;60.00;;;;;;5107293;28;20051;-66
2022/06/06 10:22:17;;;;;;;1.42;1.42;;;18.40;59.80;;;;;;5108470;28;20092;-66
2022/06/06 10:25:17;;;;;;;2.00;1.90;;;18.40;59.70;;;;;;5107966;28;20039;-65
2022/06/06 10:28:17;;;;;;;2.00;1.90;;;18.40;59.50;;;;;;5108248;28;20108;-66
2022/06/06 10:31:23;;;;;;;1.52;1.52;;;18.40;59.80;;;;;;5103193;28;20048;-66
2022/06/06 10:34:08;;;;;;;1.60;1.50;;;18.40;59.30;;;;;;5106089;28;20043;-65
2022/06/06 10:37:15;;;;;;;1.60;1.50;;;18.30;58.80;;;;;;5106283;28;20496;-65
2022/06/06 10:40:22;;;;;;;2.10;2.00;;;18.30;58.70;;;;;;5095306;28;20127;-67
2022/06/06 10:43:17;;;;;;;1.98;1.85;;;18.30;59.50;;;;;;5087919;28;20093;-65
2022/06/06 10:45:52;;;;;;;1.88;1.77;;;18.30;59.00;;;;;;5086530;28;20291;-66
2022/06/06 10:48:46;;;;;;;1.90;1.80;;;18.20;59.20;;;;;;5087195;28;20048;-65
2022/06/06 10:51:47;;;;;;;2.08;1.98;;;18.20;58.90;;;;;;5103707;28;20055;-68
2022/06/06 10:54:54;;;;;;;1.95;1.85;;;18.20;59.40;;;;;;5107692;28;20577;-68
2022/06/06 10:57:55;;;;;;;1.80;1.70;;;18.20;60.00;;;;;;5106184;28;20100;-68
2022/06/06 11:01:02;;;;;;;1.95;1.73;;;18.20;59.80;;;;;;5107329;28;20040;-68
2022/06/06 11:04:09;;;;;;;1.95;1.85;;;18.30;59.30;;;;;;5103106;28;20051;-68
2022/06/06 11:07:14;;;;;;;1.80;1.70;;;18.30;60.40;;;;;;5119071;27;20074;-68
2022/06/06 11:10:08;;;;;;;1.90;1.80;;;18.30;60.30;;;;;;5126693;27;20095;-68
2022/06/06 11:13:15;;;;;;;1.50;1.50;;;18.30;59.40;;;;;;5126404;27;20051;-68
2022/06/06 11:16:08;;;;;;;1.80;1.70;;;18.30;59.50;;;;;;5106955;28;20136;-68
2022/06/06 11:19:00;;;;;;;1.80;1.70;;;18.30;59.80;;;;;;5107044;28;20043;-68
2022/06/06 11:21:55;;;;;;;2.20;2.00;;;18.30;59.80;;;;;;5106573;28;20439;-68
2022/06/06 11:25:04;;;;;;;1.80;1.70;;;18.30;60.00;;;;;;5106055;28;20051;-68
2022/06/06 11:28:11;;;;;;;2.28;2.17;;;18.30;59.80;;;;;;5105500;28;20389;-68
2022/06/06 11:31:11;;;;;;;2.00;1.90;;;18.30;59.50;;;;;;5105540;28;20330;-68
2022/06/06 11:34:16;;;;;;;1.70;1.60;;;18.30;59.50;;;;;;5101639;28;20432;-68
2022/06/06 11:37:23;;;;;;;1.80;1.70;;;18.30;59.90;;;;;;5106516;28;20043;-68
2022/06/06 11:40:17;;;;;;;2.13;2.03;;;18.30;59.70;;;;;;5105711;28;20056;-68
2022/06/06 11:43:24;;;;;;;2.03;1.92;;;18.30;59.60;;;;;;5106904;28;20472;-68
2022/06/06 11:46:30;;;;;;;2.28;2.17;;;18.40;59.80;;;;;;5105066;28;20044;-68
2022/06/06 11:49:27;;;;;;;2.00;1.90;;;18.40;59.70;;;;;;5107126;28;20100;-68
2022/06/06 11:52:34;;;;;;;1.70;1.60;;;18.40;59.40;;;;;;5105936;28;20564;-68
2022/06/06 11:55:24;;;;;;;1.92;1.83;;;18.40;60.50;;;;;;5106494;28;20044;-68
2022/06/06 11:58:31;;;;;;;1.90;1.80;;;18.40;59.90;;;;;;5105615;28;20243;-66
2022/06/06 12:01:29;;;;;;;2.15;2.05;;;18.40;60.00;;;;;;5105400;28;20043;-66
2022/06/06 12:04:30;;;;;;;1.65;1.60;;;18.50;59.60;;;;;;5106052;28;20047;-66
2022/06/06 12:07:36;;;;;;;1.98;1.88;;;18.50;59.90;;;;;;5102711;28;20435;-66
2022/06/06 12:10:18;;;;;;;1.92;1.83;;;18.50;59.40;;;;;;5105294;28;20487;-66
2022/06/06 12:13:11;;;;;;;2.30;1.95;;;18.60;59.60;;;;;;5104624;28;20108;-66
2022/06/06 12:16:13;;;;;;;1.90;1.80;;;18.60;59.00;;;;;;5104474;28;20051;-66
2022/06/06 12:19:20;;;;;;;1.70;1.60;;;18.60;58.50;;;;;;5104953;28;20047;-67
2022/06/06 12:22:22;;;;;;;1.95;1.85;;;18.60;58.80;;;;;;5104656;28;20051;-68
2022/06/06 12:25:26;;;;;;;2.30;2.20;;;18.50;59.40;;;;;;5105951;28;20393;-68
2022/06/06 12:28:26;;;;;;;2.15;2.05;;;18.50;59.90;;;;;;5105784;28;20044;-68
2022/06/06 12:31:13;;;;;;;1.45;1.42;;;18.50;59.50;;;;;;5105617;28;20278;-68
2022/06/06 12:33:50;;;;;;;1.90;1.80;;;18.50;59.20;;;;;;5104391;28;20050;-68
2022/06/06 12:36:39;;;;;;;1.67;1.58;;;18.60;59.80;;;;;;5085005;28;20496;-68
2022/06/06 12:39:46;;;;;;;1.92;1.83;;;18.60;59.60;;;;;;5105840;28;20048;-68
2022/06/06 12:42:53;;;;;;;1.75;1.65;;;18.60;59.70;;;;;;5092821;28;20044;-65
2022/06/06 12:45:48;;;;;;;2.10;2.00;;;18.60;60.30;;;;;;5104719;28;20100;-65
2022/06/06 12:48:43;;;;;;;1.70;1.60;;;18.60;60.40;;;;;;5106020;28;20162;-65
2022/06/06 12:51:35;;;;;;;2.03;1.92;;;18.70;60.10;;;;;;5105371;28;20048;-68
2022/06/06 12:54:30;;;;;;;1.70;1.60;;;18.70;60.00;;;;;;5105026;28;20052;-68
2022/06/06 12:57:01;;;;;;;1.67;1.58;;;18.70;59.60;;;;;;5105636;28;20093;-68
2022/06/06 12:59:46;;;;;;;1.60;1.50;;;18.60;59.90;;;;;;5103894;28;20043;-68
2022/06/06 13:02:53;;;;;;;1.90;1.80;;;18.70;59.90;;;;;;5105470;28;20343;-68
2022/06/06 13:05:44;;;;;;;1.30;1.30;;;18.70;59.90;;;;;;5103830;28;20044;-68
2022/06/06 13:08:42;;;;;;;1.73;1.63;;;18.70;59.60;;;;;;5099583;28;20101;-68
2022/06/06 13:11:49;;;;;;;1.70;1.60;;;18.70;60.20;;;;;;5108203;28;20097;-68
2022/06/06 13:14:55;;;;;;;1.38;1.38;;;18.70;60.30;;;;;;5109574;28;20082;-68
2022/06/06 13:17:44;;;;;;;1.55;1.50;;;18.70;59.60;;;;;;5107798;28;20100;-68
2022/06/06 13:20:31;;;;;;;1.95;1.85;;;18.70;59.60;;;;;;5108615;28;20517;-68
2022/06/06 13:23:38;;;;;;;1.40;1.40;;;18.70;59.60;;;;;;5108173;28;20043;-68
2022/06/06 13:26:32;;;;;;;1.45;1.45;;;18.70;59.80;;;;;;5109246;28;20481;-68
2022/06/06 13:28:59;;;;;;;1.23;1.23;;;18.70;59.90;;;;;;5108642;28;20442;-68
2022/06/06 13:31:42;;;;;;;1.58;1.48;;;18.60;59.90;;;;;;5109460;28;20729;-68
2022/06/06 13:34:23;;;;;;;1.58;1.50;;;18.60;60.20;;;;;;5109172;28;20071;-68
2022/06/06 13:37:10;;;;;;;1.42;1.40;;;18.60;60.20;;;;;;5107951;28;20107;-68
2022/06/06 13:39:58;;;;;;;1.40;1.40;;;18.60;60.00;;;;;;5106326;28;20096;-68
2022/06/06 13:43:04;;;;;;;1.30;1.30;;;18.70;60.10;;;;;;5108430;28;20047;-68
2022/06/06 13:46:00;;;;;;;1.42;1.30;;;18.70;60.50;;;;;;5108896;28;20043;-68
2022/06/06 13:48:59;;;;;;;1.33;1.23;;;18.70;60.40;;;;;;5107277;28;20096;-68
2022/06/06 13:52:06;;;;;;;1.50;1.40;;;18.70;60.50;;;;;;5107299;28;20093;-68
2022/06/06 13:54:36;;;;;;;1.75;1.65;;;18.70;60.10;;;;;;5096550;28;20040;-66
2022/06/06 13:57:19;;;;;;;1.20;1.20;;;18.70;60.20;;;;;;5109003;28;20110;-67
2022/06/06 14:00:15;;;;;;;1.13;1.13;;;18.70;60.20;;;;;;5108533;28;20055;-67
2022/06/06 14:03:21;;;;;;;1.40;1.30;;;18.70;59.60;;;;;;5108499;28;20055;-67
2022/06/06 14:06:14;;;;;;;1.15;1.10;;;18.70;60.10;;;;;;5095478;28;20472;-67
2022/06/06 14:08:54;;;;;;;1.27;1.20;;;18.70;59.80;;;;;;5106475;28;20090;-66
2022/06/06 14:11:56;;;;;;;1.33;1.33;;;18.70;60.40;;;;;;5106502;28;20051;-67
2022/06/06 14:14:25;;;;;;;1.15;1.15;;;18.60;60.00;;;;;;5107958;28;20096;-67
2022/06/06 14:17:13;;;;;;;1.23;1.23;;;18.70;60.20;;;;;;5107933;28;20054;-66
2022/06/06 14:19:56;;;;;;;1.17;0.82;;;18.70;60.10;;;;;;5108042;28;20040;-66
2022/06/06 14:22:30;;;;;;;1.30;1.20;;;18.70;60.30;;;;;;5108358;28;20044;-67
2022/06/06 14:25:01;;;;;;;1.30;1.30;;;18.70;60.50;;;;;;5108013;28;20097;-66
2022/06/06 14:27:30;;;;;;;0.93;0.93;;;18.80;60.40;;;;;;5107025;28;20243;-66
2022/06/06 14:30:02;;;;;;;1.15;1.15;;;18.80;60.30;;;;;;5107970;28;20047;-66
2022/06/06 14:32:49;;;;;;;1.02;1.02;;;18.80;60.10;;;;;;5108221;28;20477;-67
2022/06/06 14:35:33;;;;;;;0.95;0.95;;;18.80;60.20;;;;;;5107831;28;20104;-66
2022/06/06 14:38:13;;;;;;;;;;;18.80;60.30;;;;;;5108107;28;20104;-67
2022/06/06 14:41:00;;;;;;;1.10;1.10;;;18.80;60.30;;;;;;5107753;28;20535;-67
2022/06/06 14:43:46;;;;;;;1.08;1.08;;;18.80;60.50;;;;;;5103262;28;20043;-66
2022/06/06 14:46:16;;;;;;;0.90;0.90;;;18.90;60.80;;;;;;5107903;28;20040;-67
2022/06/06 14:48:56;;;;;;;0.90;0.90;;;18.90;60.80;;;;;;5106764;28;20055;-66
2022/06/06 14:51:43;;;;;;;0.82;0.82;;;18.90;60.80;;;;;;5107649;28;20502;-67
2022/06/06 14:54:12;;;;;;;1.08;1.08;;;19.00;61.60;;;;;;5106833;28;20539;-66